sensor_id;sensor_type;location;lat;lon;timestamp;pressure;altitude;pressure_sealevel;temperature;humidity
7930;BME280;4010;42.698;23.124;2022-07-23T00:00:16;118349.16;;;-140.64;100.00
7930;BME280;4010;42.698;23.124;2022-07-23T00:02:43;118349.16;;;-140.64;100.00
7930;BME280;4010;42.698;23.124;2022-07-23T00:05:10;118349.16;;;-140.64;100.00
7930;BME280;4010;42.698;23.124;2022-07-23T00:07:38;118349.16;;;-140.64;100.00
7930;BME280;4010;42.698;23.124;2022-07-23T00:10:05;118349.16;;;-140.64;100.00
7930;BME280;4010;42.698;23.124;2022-07-23T00:12:32;118349.16;;;-140.64;100.00
7930;BME280;4010;42.698;23.124;2022-07-23T00:14:59;118349.16;;;-140.64;100.00
7930;BME280;4010;42.698;23.124;2022-07-23T00:17:27;118349.16;;;-140.64;100.00
7930;BME280;4010;42.698;23.124;2022-07-23T00:19:54;118349.16;;;-140.64;100.00
7930;BME280;4010;42.698;23.124;2022-07-23T00:22:21;118349.16;;;-140.64;100.00
7930;BME280;4010;42.698;23.124;2022-07-23T00:24:48;118349.16;;;-140.64;100.00
7930;BME280;4010;42.698;23.124;2022-07-23T00:27:14;118349.16;;;-140.64;100.00
7930;BME280;4010;42.698;23.124;2022-07-23T00:29:41;118349.16;;;-140.64;100.00
7930;BME280;4010;42.698;23.124;2022-07-23T00:32:08;118349.16;;;-140.64;100.00
7930;BME280;4010;42.698;23.124;2022-07-23T00:34:36;118349.16;;;-140.64;100.00
7930;BME280;4010;42.698;23.124;2022-07-23T00:37:03;118349.16;;;-140.64;100.00
7930;BME280;4010;42.698;23.124;2022-07-23T00:39:30;118349.16;;;-140.64;100.00
7930;BME280;4010;42.698;23.124;2022-07-23T00:41:56;118349.16;;;-140.64;100.00
7930;BME280;4010;42.698;23.124;2022-07-23T00:44:25;118349.16;;;-140.64;100.00
7930;BME280;4010;42.698;23.124;2022-07-23T00:46:53;118349.16;;;-140.64;100.00
7930;BME280;4010;42.698;23.124;2022-07-23T00:49:20;118349.16;;;-140.64;100.00
7930;BME280;4010;42.698;23.124;2022-07-23T00:51:49;118349.16;;;-140.64;100.00
7930;BME280;4010;42.698;23.124;2022-07-23T00:54:17;118349.16;;;-140.64;100.00
7930;BME280;4010;42.698;23.124;2022-07-23T00:56:44;118349.16;;;-140.64;100.00
7930;BME280;4010;42.698;23.124;2022-07-23T00:59:12;118349.16;;;-140.64;100.00
7930;BME280;4010;42.698;23.124;2022-07-23T01:01:39;118349.16;;;-140.64;100.00
7930;BME280;4010;42.698;23.124;2022-07-23T01:04:07;118349.16;;;-140.64;100.00
7930;BME280;4010;42.698;23.124;2022-07-23T01:06:35;118349.16;;;-140.64;100.00
7930;BME280;4010;42.698;23.124;2022-07-23T01:09:04;118349.16;;;-140.64;100.00
7930;BME280;4010;42.698;23.124;2022-07-23T01:11:34;118349.16;;;-140.64;100.00
7930;BME280;4010;42.698;23.124;2022-07-23T01:14:11;118349.16;;;-140.64;100.00
7930;BME280;4010;42.698;23.124;2022-07-23T01:16:45;118349.16;;;-140.64;100.00
7930;BME280;4010;42.698;23.124;2022-07-23T01:19:13;118349.16;;;-140.64;100.00
7930;BME280;4010;42.698;23.124;2022-07-23T01:21:42;118349.16;;;-140.64;100.00
7930;BME280;4010;42.698;23.124;2022-07-23T01:24:11;118349.16;;;-140.64;100.00
7930;BME280;4010;42.698;23.124;2022-07-23T01:26:40;118349.16;;;-140.64;100.00
7930;BME280;4010;42.698;23.124;2022-07-23T01:29:07;118349.16;;;-140.64;100.00
7930;BME280;4010;42.698;23.124;2022-07-23T01:31:33;118349.16;;;-140.64;100.00
7930;BME280;4010;42.698;23.124;2022-07-23T01:34:00;118349.16;;;-140.64;100.00
7930;BME280;4010;42.698;23.124;2022-07-23T01:36:27;118349.16;;;-140.64;100.00
7930;BME280;4010;42.698;23.124;2022-07-23T01:38:54;118349.16;;;-140.64;100.00
7930;BME280;4010;42.698;23.124;2022-07-23T01:41:22;118349.16;;;-140.64;100.00
7930;BME280;4010;42.698;23.124;2022-07-23T01:43:49;118349.16;;;-140.64;100.00
7930;BME280;4010;42.698;23.124;2022-07-23T01:46:16;118349.16;;;-140.64;100.00
7930;BME280;4010;42.698;23.124;2022-07-23T01:48:43;118349.16;;;-140.64;100.00
7930;BME280;4010;42.698;23.124;2022-07-23T01:51:10;118349.16;;;-140.64;100.00
7930;BME280;4010;42.698;23.124;2022-07-23T01:53:37;118349.16;;;-140.64;100.00
7930;BME280;4010;42.698;23.124;2022-07-23T01:56:04;118349.16;;;-140.64;100.00
7930;BME280;4010;42.698;23.124;2022-07-23T01:58:32;118349.16;;;-140.64;100.00
7930;BME280;4010;42.698;23.124;2022-07-23T02:00:59;118349.16;;;-140.64;100.00
7930;BME280;4010;42.698;23.124;2022-07-23T02:03:27;118349.16;;;-140.64;100.00
7930;BME280;4010;42.698;23.124;2022-07-23T02:05:54;118349.16;;;-140.64;100.00
7930;BME280;4010;42.698;23.124;2022-07-23T02:08:21;118349.16;;;-140.64;100.00
7930;BME280;4010;42.698;23.124;2022-07-23T02:10:47;118349.16;;;-140.64;100.00
7930;BME280;4010;42.698;23.124;2022-07-23T02:13:16;118349.16;;;-140.64;100.00
7930;BME280;4010;42.698;23.124;2022-07-23T02:15:45;118349.16;;;-140.64;100.00
7930;BME280;4010;42.698;23.124;2022-07-23T02:18:12;118349.16;;;-140.64;100.00
7930;BME280;4010;42.698;23.124;2022-07-23T02:20:38;118349.16;;;-140.64;100.00
7930;BME280;4010;42.698;23.124;2022-07-23T02:23:05;118349.16;;;-140.64;100.00
7930;BME280;4010;42.698;23.124;2022-07-23T02:25:33;118349.16;;;-140.64;100.00
7930;BME280;4010;42.698;23.124;2022-07-23T02:28:00;118349.16;;;-140.64;100.00
7930;BME280;4010;42.698;23.124;2022-07-23T02:30:27;118349.16;;;-140.64;100.00
7930;BME280;4010;42.698;23.124;2022-07-23T02:32:55;118349.16;;;-140.64;100.00
7930;BME280;4010;42.698;23.124;2022-07-23T02:35:22;118349.16;;;-140.64;100.00
7930;BME280;4010;42.698;23.124;2022-07-23T02:37:49;118349.16;;;-140.64;100.00
7930;BME280;4010;42.698;23.124;2022-07-23T02:40:16;118349.16;;;-140.64;100.00
7930;BME280;4010;42.698;23.124;2022-07-23T02:42:43;118349.16;;;-140.64;100.00
7930;BME280;4010;42.698;23.124;2022-07-23T02:45:10;118349.16;;;-140.64;100.00
7930;BME280;4010;42.698;23.124;2022-07-23T02:47:36;118349.16;;;-140.64;100.00
7930;BME280;4010;42.698;23.124;2022-07-23T02:50:06;118349.16;;;-140.64;100.00
7930;BME280;4010;42.698;23.124;2022-07-23T02:52:33;118349.16;;;-140.64;100.00
7930;BME280;4010;42.698;23.124;2022-07-23T02:54:59;118349.16;;;-140.64;100.00
7930;BME280;4010;42.698;23.124;2022-07-23T02:57:26;118349.16;;;-140.64;100.00
7930;BME280;4010;42.698;23.124;2022-07-23T02:59:53;118349.16;;;-140.64;100.00
7930;BME280;4010;42.698;23.124;2022-07-23T03:02:19;118349.16;;;-140.64;100.00
7930;BME280;4010;42.698;23.124;2022-07-23T03:04:46;118349.16;;;-140.64;100.00
7930;BME280;4010;42.698;23.124;2022-07-23T03:07:15;118349.16;;;-140.64;100.00
7930;BME280;4010;42.698;23.124;2022-07-23T03:09:42;118349.16;;;-140.64;100.00
7930;BME280;4010;42.698;23.124;2022-07-23T03:12:09;118349.16;;;-140.64;100.00
7930;BME280;4010;42.698;23.124;2022-07-23T03:14:36;118349.16;;;-140.64;100.00
7930;BME280;4010;42.698;23.124;2022-07-23T03:17:02;118349.16;;;-140.64;100.00
7930;BME280;4010;42.698;23.124;2022-07-23T03:19:29;118349.16;;;-140.64;100.00
7930;BME280;4010;42.698;23.124;2022-07-23T03:21:56;118349.16;;;-140.64;100.00
7930;BME280;4010;42.698;23.124;2022-07-23T03:24:24;118349.16;;;-140.64;100.00
7930;BME280;4010;42.698;23.124;2022-07-23T03:27:15;118349.16;;;-140.64;100.00
7930;BME280;4010;42.698;23.124;2022-07-23T03:29:41;118349.16;;;-140.64;100.00
7930;BME280;4010;42.698;23.124;2022-07-23T03:32:08;118349.16;;;-140.64;100.00
7930;BME280;4010;42.698;23.124;2022-07-23T03:34:35;118349.16;;;-140.64;100.00
7930;BME280;4010;42.698;23.124;2022-07-23T03:37:02;118349.16;;;-140.64;100.00
7930;BME280;4010;42.698;23.124;2022-07-23T03:39:30;118349.16;;;-140.64;100.00
7930;BME280;4010;42.698;23.124;2022-07-23T03:41:57;118349.16;;;-140.64;100.00
7930;BME280;4010;42.698;23.124;2022-07-23T03:44:24;118349.16;;;-140.64;100.00
7930;BME280;4010;42.698;23.124;2022-07-23T03:46:51;118349.16;;;-140.64;100.00
7930;BME280;4010;42.698;23.124;2022-07-23T03:49:17;118349.16;;;-140.64;100.00
7930;BME280;4010;42.698;23.124;2022-07-23T03:51:44;118349.16;;;-140.64;100.00
7930;BME280;4010;42.698;23.124;2022-07-23T03:54:11;118349.16;;;-140.64;100.00
7930;BME280;4010;42.698;23.124;2022-07-23T03:56:39;118349.16;;;-140.64;100.00
7930;BME280;4010;42.698;23.124;2022-07-23T03:59:06;118349.16;;;-140.64;100.00
7930;BME280;4010;42.698;23.124;2022-07-23T04:01:32;118349.16;;;-140.64;93.00
7930;BME280;4010;42.698;23.124;2022-07-23T04:03:59;118349.16;;;-140.64;88.54
7930;BME280;4010;42.698;23.124;2022-07-23T04:06:26;118349.16;;;-140.64;84.60
7930;BME280;4010;42.698;23.124;2022-07-23T04:08:53;118349.16;;;-140.64;79.27
7930;BME280;4010;42.698;23.124;2022-07-23T04:11:19;118349.16;;;-140.64;75.68
7930;BME280;4010;42.698;23.124;2022-07-23T04:13:48;118349.16;;;-140.64;73.71
7930;BME280;4010;42.698;23.124;2022-07-23T04:16:14;118349.16;;;-140.64;71.04
7930;BME280;4010;42.698;23.124;2022-07-23T04:18:41;118349.16;;;-140.64;67.52
7930;BME280;4010;42.698;23.124;2022-07-23T04:21:08;118349.16;;;-140.64;65.56
7930;BME280;4010;42.698;23.124;2022-07-23T04:23:34;118349.16;;;-140.64;63.73
7930;BME280;4010;42.698;23.124;2022-07-23T04:26:01;118349.16;;;-140.64;63.22
7930;BME280;4010;42.698;23.124;2022-07-23T04:28:28;118349.16;;;-140.64;59.50
7930;BME280;4010;42.698;23.124;2022-07-23T04:30:57;118349.16;;;-140.64;59.96
7930;BME280;4010;42.698;23.124;2022-07-23T04:33:24;118349.16;;;-140.64;59.09
7930;BME280;4010;42.698;23.124;2022-07-23T04:35:50;118349.16;;;-140.64;57.82
7930;BME280;4010;42.698;23.124;2022-07-23T04:38:17;118349.16;;;-140.64;58.41
7930;BME280;4010;42.698;23.124;2022-07-23T04:40:44;118349.16;;;-140.64;56.59
7930;BME280;4010;42.698;23.124;2022-07-23T04:43:11;118349.16;;;-140.64;55.93
7930;BME280;4010;42.698;23.124;2022-07-23T04:45:38;118349.16;;;-140.64;50.94
7930;BME280;4010;42.698;23.124;2022-07-23T04:48:06;118349.16;;;-140.64;53.95
7930;BME280;4010;42.698;23.124;2022-07-23T04:50:33;118349.16;;;-140.64;54.08
7930;BME280;4010;42.698;23.124;2022-07-23T04:52:59;118349.16;;;-140.64;51.92
7930;BME280;4010;42.698;23.124;2022-07-23T04:55:26;118349.16;;;-140.64;50.10
7930;BME280;4010;42.698;23.124;2022-07-23T04:57:53;118349.16;;;-140.64;52.41
7930;BME280;4010;42.698;23.124;2022-07-23T05:00:20;118349.16;;;-140.64;48.27
7930;BME280;4010;42.698;23.124;2022-07-23T05:02:48;118349.16;;;-140.64;47.59
7930;BME280;4010;42.698;23.124;2022-07-23T05:05:16;118349.16;;;-140.64;47.19
7930;BME280;4010;42.698;23.124;2022-07-23T05:07:43;118349.16;;;-140.64;47.96
7930;BME280;4010;42.698;23.124;2022-07-23T05:10:09;118349.16;;;-140.64;47.80
7930;BME280;4010;42.698;23.124;2022-07-23T05:12:36;118349.16;;;-140.64;41.54
7930;BME280;4010;42.698;23.124;2022-07-23T05:15:04;118349.16;;;-140.64;43.08
7930;BME280;4010;42.698;23.124;2022-07-23T05:17:30;118349.16;;;-140.64;44.50
7930;BME280;4010;42.698;23.124;2022-07-23T05:19:57;118349.16;;;-140.64;41.83
7930;BME280;4010;42.698;23.124;2022-07-23T05:22:25;118349.16;;;-140.64;44.37
7930;BME280;4010;42.698;23.124;2022-07-23T05:24:52;118349.16;;;-140.64;41.88
7930;BME280;4010;42.698;23.124;2022-07-23T05:27:19;118349.16;;;-140.64;43.12
7930;BME280;4010;42.698;23.124;2022-07-23T05:29:45;118349.16;;;-140.64;41.35
7930;BME280;4010;42.698;23.124;2022-07-23T05:32:12;118349.16;;;-140.64;40.04
7930;BME280;4010;42.698;23.124;2022-07-23T05:34:39;118349.16;;;-140.64;38.09
7930;BME280;4010;42.698;23.124;2022-07-23T05:37:06;118349.16;;;-140.64;36.82
7930;BME280;4010;42.698;23.124;2022-07-23T05:39:34;118349.16;;;-140.64;38.10
7930;BME280;4010;42.698;23.124;2022-07-23T05:42:00;118349.16;;;-140.64;38.09
7930;BME280;4010;42.698;23.124;2022-07-23T05:44:27;118349.16;;;-140.64;41.38
7930;BME280;4010;42.698;23.124;2022-07-23T05:46:54;118349.16;;;-140.64;39.12
7930;BME280;4010;42.698;23.124;2022-07-23T05:49:20;118349.16;;;-140.64;35.64
7930;BME280;4010;42.698;23.124;2022-07-23T05:51:47;118349.16;;;-140.64;36.07
7930;BME280;4010;42.698;23.124;2022-07-23T05:54:14;118349.16;;;-140.64;41.24
7930;BME280;4010;42.698;23.124;2022-07-23T05:56:42;118349.16;;;-140.64;38.02
7930;BME280;4010;42.698;23.124;2022-07-23T05:59:09;118349.16;;;-140.64;37.86
7930;BME280;4010;42.698;23.124;2022-07-23T06:01:37;118349.16;;;-140.64;40.75
7930;BME280;4010;42.698;23.124;2022-07-23T06:04:04;118349.16;;;-140.64;41.04
7930;BME280;4010;42.698;23.124;2022-07-23T06:06:30;118349.16;;;-140.64;43.70
7930;BME280;4010;42.698;23.124;2022-07-23T06:08:57;118349.16;;;-140.64;39.61
7930;BME280;4010;42.698;23.124;2022-07-23T06:11:24;118349.16;;;-140.64;43.00
7930;BME280;4010;42.698;23.124;2022-07-23T06:13:52;118349.16;;;-140.64;39.68
7930;BME280;4010;42.698;23.124;2022-07-23T06:16:20;118349.16;;;-140.64;40.75
7930;BME280;4010;42.698;23.124;2022-07-23T06:18:47;118349.16;;;-140.64;37.68
7930;BME280;4010;42.698;23.124;2022-07-23T06:21:13;118349.16;;;-140.64;40.33
7930;BME280;4010;42.698;23.124;2022-07-23T06:23:40;118349.16;;;-140.64;38.10
7930;BME280;4010;42.698;23.124;2022-07-23T06:26:07;118349.16;;;-140.64;37.84
7930;BME280;4010;42.698;23.124;2022-07-23T06:28:33;118349.16;;;-140.64;39.26
7930;BME280;4010;42.698;23.124;2022-07-23T06:31:02;118349.16;;;-140.64;40.24
7930;BME280;4010;42.698;23.124;2022-07-23T06:33:28;118349.16;;;-140.64;41.16
7930;BME280;4010;42.698;23.124;2022-07-23T06:35:55;118349.16;;;-140.64;39.34
7930;BME280;4010;42.698;23.124;2022-07-23T06:38:22;118349.16;;;-140.64;38.88
7930;BME280;4010;42.698;23.124;2022-07-23T06:40:48;118349.16;;;-140.64;37.60
7930;BME280;4010;42.698;23.124;2022-07-23T06:43:15;118349.16;;;-140.64;37.95
7930;BME280;4010;42.698;23.124;2022-07-23T06:45:42;118349.16;;;-140.64;37.49
7930;BME280;4010;42.698;23.124;2022-07-23T06:48:10;118349.16;;;-140.64;39.06
7930;BME280;4010;42.698;23.124;2022-07-23T06:50:40;118349.16;;;-140.64;40.40
7930;BME280;4010;42.698;23.124;2022-07-23T06:53:06;118349.16;;;-140.64;39.11
7930;BME280;4010;42.698;23.124;2022-07-23T06:55:33;118349.16;;;-140.64;42.14
7930;BME280;4010;42.698;23.124;2022-07-23T06:58:03;118349.16;;;-140.64;39.82
7930;BME280;4010;42.698;23.124;2022-07-23T07:00:30;118349.16;;;-140.64;40.03
7930;BME280;4010;42.698;23.124;2022-07-23T07:02:57;118349.16;;;-140.64;40.19
7930;BME280;4010;42.698;23.124;2022-07-23T07:05:26;118349.16;;;-140.64;39.87
7930;BME280;4010;42.698;23.124;2022-07-23T07:07:53;118349.16;;;-140.64;38.75
7930;BME280;4010;42.698;23.124;2022-07-23T07:10:20;118349.16;;;-140.64;40.38
7930;BME280;4010;42.698;23.124;2022-07-23T07:12:47;118349.16;;;-140.64;40.39
7930;BME280;4010;42.698;23.124;2022-07-23T07:15:14;118349.16;;;-140.64;39.80
7930;BME280;4010;42.698;23.124;2022-07-23T07:17:41;118349.16;;;-140.64;45.09
7930;BME280;4010;42.698;23.124;2022-07-23T07:20:10;118349.16;;;-140.64;43.96
7930;BME280;4010;42.698;23.124;2022-07-23T07:22:38;118349.16;;;-140.64;45.79
7930;BME280;4010;42.698;23.124;2022-07-23T07:25:05;118349.16;;;-140.64;47.04
7930;BME280;4010;42.698;23.124;2022-07-23T07:27:38;118349.16;;;-140.64;47.80
7930;BME280;4010;42.698;23.124;2022-07-23T07:30:27;118349.16;;;-140.64;49.89
7930;BME280;4010;42.698;23.124;2022-07-23T07:33:08;118349.16;;;-140.64;54.85
7930;BME280;4010;42.698;23.124;2022-07-23T07:35:35;118349.16;;;-140.64;49.88
7930;BME280;4010;42.698;23.124;2022-07-23T07:38:03;118349.16;;;-140.64;50.43
7930;BME280;4010;42.698;23.124;2022-07-23T07:40:29;118349.16;;;-140.64;50.64
7930;BME280;4010;42.698;23.124;2022-07-23T07:42:56;118349.16;;;-140.64;52.95
7930;BME280;4010;42.698;23.124;2022-07-23T07:45:23;118349.16;;;-140.64;53.76
7930;BME280;4010;42.698;23.124;2022-07-23T07:47:51;118349.16;;;-140.64;54.85
7930;BME280;4010;42.698;23.124;2022-07-23T07:50:19;118349.16;;;-140.64;54.14
7930;BME280;4010;42.698;23.124;2022-07-23T07:52:46;118349.16;;;-140.64;54.39
7930;BME280;4010;42.698;23.124;2022-07-23T07:55:14;118349.16;;;-140.64;50.56
7930;BME280;4010;42.698;23.124;2022-07-23T07:57:41;118349.16;;;-140.64;51.55
7930;BME280;4010;42.698;23.124;2022-07-23T08:00:09;118349.16;;;-140.64;57.11
7930;BME280;4010;42.698;23.124;2022-07-23T08:02:41;118349.16;;;-140.64;56.42
7930;BME280;4010;42.698;23.124;2022-07-23T08:05:08;118349.16;;;-140.64;50.99
7930;BME280;4010;42.698;23.124;2022-07-23T08:07:36;118349.16;;;-140.64;52.78
7930;BME280;4010;42.698;23.124;2022-07-23T08:10:05;118349.16;;;-140.64;51.25
7930;BME280;4010;42.698;23.124;2022-07-23T08:12:40;118349.16;;;-140.64;49.29
7930;BME280;4010;42.698;23.124;2022-07-23T08:15:08;118349.16;;;-140.64;53.51
7930;BME280;4010;42.698;23.124;2022-07-23T08:17:35;118349.16;;;-140.64;52.33
7930;BME280;4010;42.698;23.124;2022-07-23T08:20:03;118349.16;;;-140.64;50.65
7930;BME280;4010;42.698;23.124;2022-07-23T08:22:48;118349.16;;;-140.64;52.32
7930;BME280;4010;42.698;23.124;2022-07-23T08:25:15;118349.16;;;-140.64;52.19
7930;BME280;4010;42.698;23.124;2022-07-23T08:27:43;118349.16;;;-140.64;50.71
7930;BME280;4010;42.698;23.124;2022-07-23T08:30:11;118349.16;;;-140.64;55.01
7930;BME280;4010;42.698;23.124;2022-07-23T08:32:51;118349.16;;;-140.64;47.10
7930;BME280;4010;42.698;23.124;2022-07-23T08:35:23;118349.16;;;-140.64;50.45
7930;BME280;4010;42.698;23.124;2022-07-23T08:37:50;118349.16;;;-140.64;49.17
7930;BME280;4010;42.698;23.124;2022-07-23T08:40:17;118349.16;;;-140.64;47.62
7930;BME280;4010;42.698;23.124;2022-07-23T08:42:47;118349.16;;;-140.64;50.02
7930;BME280;4010;42.698;23.124;2022-07-23T08:45:17;118349.16;;;-140.64;49.30
7930;BME280;4010;42.698;23.124;2022-07-23T08:47:44;118349.16;;;-140.64;48.30
7930;BME280;4010;42.698;23.124;2022-07-23T08:50:11;118349.16;;;-140.64;48.77
7930;BME280;4010;42.698;23.124;2022-07-23T08:52:38;118349.16;;;-140.64;47.19
7930;BME280;4010;42.698;23.124;2022-07-23T08:55:07;118349.16;;;-140.64;48.13
7930;BME280;4010;42.698;23.124;2022-07-23T08:57:34;118349.16;;;-140.64;46.58
7930;BME280;4010;42.698;23.124;2022-07-23T09:00:03;118349.16;;;-140.64;45.45
7930;BME280;4010;42.698;23.124;2022-07-23T09:02:30;118349.16;;;-140.64;47.04
7930;BME280;4010;42.698;23.124;2022-07-23T09:04:57;118349.16;;;-140.64;47.07
7930;BME280;4010;42.698;23.124;2022-07-23T09:07:23;118349.16;;;-140.64;46.46
7930;BME280;4010;42.698;23.124;2022-07-23T09:10:05;118349.16;;;-140.64;47.15
7930;BME280;4010;42.698;23.124;2022-07-23T09:12:32;118349.16;;;-140.64;42.25
7930;BME280;4010;42.698;23.124;2022-07-23T09:15:05;118349.16;;;-140.64;43.66
7930;BME280;4010;42.698;23.124;2022-07-23T09:17:39;118349.16;;;-140.64;45.82
7930;BME280;4010;42.698;23.124;2022-07-23T09:20:08;118349.16;;;-140.64;47.64
7930;BME280;4010;42.698;23.124;2022-07-23T09:22:35;118349.16;;;-140.64;42.60
7930;BME280;4010;42.698;23.124;2022-07-23T09:25:04;118349.16;;;-140.64;40.61
7930;BME280;4010;42.698;23.124;2022-07-23T09:27:51;118349.16;;;-140.64;39.00
7930;BME280;4010;42.698;23.124;2022-07-23T09:30:20;118349.16;;;-140.64;37.50
7930;BME280;4010;42.698;23.124;2022-07-23T09:33:07;118349.16;;;-140.64;39.86
7930;BME280;4010;42.698;23.124;2022-07-23T09:35:44;118349.16;;;-140.64;37.47
7930;BME280;4010;42.698;23.124;2022-07-23T09:38:11;118349.16;;;-140.64;40.29
7930;BME280;4010;42.698;23.124;2022-07-23T09:40:38;118349.16;;;-140.64;39.19
7930;BME280;4010;42.698;23.124;2022-07-23T09:43:04;118349.16;;;-140.64;37.74
7930;BME280;4010;42.698;23.124;2022-07-23T09:45:32;118349.16;;;-140.64;39.04
7930;BME280;4010;42.698;23.124;2022-07-23T09:48:10;118349.16;;;-140.64;36.75
7930;BME280;4010;42.698;23.124;2022-07-23T09:50:38;118349.16;;;-140.64;36.58
7930;BME280;4010;42.698;23.124;2022-07-23T09:53:04;118349.16;;;-140.64;36.67
7930;BME280;4010;42.698;23.124;2022-07-23T09:55:32;118349.16;;;-140.64;37.86
7930;BME280;4010;42.698;23.124;2022-07-23T09:58:02;118349.16;;;-140.64;35.21
7930;BME280;4010;42.698;23.124;2022-07-23T10:00:29;118349.16;;;-140.64;35.76
7930;BME280;4010;42.698;23.124;2022-07-23T10:02:59;118349.16;;;-140.64;35.72
7930;BME280;4010;42.698;23.124;2022-07-23T10:05:26;118349.16;;;-140.64;36.36
7930;BME280;4010;42.698;23.124;2022-07-23T10:07:53;118349.16;;;-140.64;32.39
7930;BME280;4010;42.698;23.124;2022-07-23T10:10:21;118349.16;;;-140.64;31.25
7930;BME280;4010;42.698;23.124;2022-07-23T10:12:49;118349.16;;;-140.64;31.92
7930;BME280;4010;42.698;23.124;2022-07-23T10:15:33;118349.16;;;-140.64;31.72
7930;BME280;4010;42.698;23.124;2022-07-23T10:18:01;118349.16;;;-140.64;34.38
7930;BME280;4010;42.698;23.124;2022-07-23T10:20:28;118349.16;;;-140.64;32.77
7930;BME280;4010;42.698;23.124;2022-07-23T10:23:02;118349.16;;;-140.64;33.63
7930;BME280;4010;42.698;23.124;2022-07-23T10:25:36;118349.16;;;-140.64;34.73
7930;BME280;4010;42.698;23.124;2022-07-23T10:28:18;118349.16;;;-140.64;33.40
7930;BME280;4010;42.698;23.124;2022-07-23T10:30:54;118349.16;;;-140.64;32.92
7930;BME280;4010;42.698;23.124;2022-07-23T10:33:32;118349.16;;;-140.64;35.83
7930;BME280;4010;42.698;23.124;2022-07-23T10:36:20;118349.16;;;-140.64;34.73
7930;BME280;4010;42.698;23.124;2022-07-23T10:38:54;118349.16;;;-140.64;32.77
7930;BME280;4010;42.698;23.124;2022-07-23T10:41:33;118349.16;;;-140.64;30.82
7930;BME280;4010;42.698;23.124;2022-07-23T10:44:08;118349.16;;;-140.64;32.45
7930;BME280;4010;42.698;23.124;2022-07-23T10:46:35;118349.16;;;-140.64;31.11
7930;BME280;4010;42.698;23.124;2022-07-23T10:49:23;118349.16;;;-140.64;31.41
7930;BME280;4010;42.698;23.124;2022-07-23T10:52:16;118349.16;;;-140.64;30.85
7930;BME280;4010;42.698;23.124;2022-07-23T10:54:50;118349.16;;;-140.64;33.36
7930;BME280;4010;42.698;23.124;2022-07-23T10:57:18;118349.16;;;-140.64;29.23
7930;BME280;4010;42.698;23.124;2022-07-23T11:00:14;118349.16;;;-140.64;29.72
7930;BME280;4010;42.698;23.124;2022-07-23T11:02:43;118349.16;;;-140.64;31.52
7930;BME280;4010;42.698;23.124;2022-07-23T11:05:13;118349.16;;;-140.64;30.88
7930;BME280;4010;42.698;23.124;2022-07-23T11:08:12;118349.16;;;-140.64;31.29
7930;BME280;4010;42.698;23.124;2022-07-23T11:10:53;118349.16;;;-140.64;31.87
7930;BME280;4010;42.698;23.124;2022-07-23T11:13:40;118349.16;;;-140.64;31.54
7930;BME280;4010;42.698;23.124;2022-07-23T11:16:21;118349.16;;;-140.64;29.75
7930;BME280;4010;42.698;23.124;2022-07-23T11:18:57;118349.16;;;-140.64;29.91
7930;BME280;4010;42.698;23.124;2022-07-23T11:21:47;118349.16;;;-140.64;31.30
7930;BME280;4010;42.698;23.124;2022-07-23T11:24:24;118349.16;;;-140.64;33.00
7930;BME280;4010;42.698;23.124;2022-07-23T11:27:02;118349.16;;;-140.64;31.27
7930;BME280;4010;42.698;23.124;2022-07-23T11:29:42;118349.16;;;-140.64;30.91
7930;BME280;4010;42.698;23.124;2022-07-23T11:35:24;118349.16;;;-140.64;30.99
7930;BME280;4010;42.698;23.124;2022-07-23T11:38:01;118349.16;;;-140.64;29.69
7930;BME280;4010;42.698;23.124;2022-07-23T11:40:29;118349.16;;;-140.64;31.59
7930;BME280;4010;42.698;23.124;2022-07-23T11:42:58;118349.16;;;-140.64;30.47
7930;BME280;4010;42.698;23.124;2022-07-23T11:45:31;118349.16;;;-140.64;32.85
7930;BME280;4010;42.698;23.124;2022-07-23T11:47:58;118349.16;;;-140.64;29.63
7930;BME280;4010;42.698;23.124;2022-07-23T11:50:25;118349.16;;;-140.64;30.93
7930;BME280;4010;42.698;23.124;2022-07-23T11:52:54;118349.16;;;-140.64;32.54
7930;BME280;4010;42.698;23.124;2022-07-23T11:55:21;118349.16;;;-140.64;29.25
7930;BME280;4010;42.698;23.124;2022-07-23T11:57:51;118349.16;;;-140.64;28.93
7930;BME280;4010;42.698;23.124;2022-07-23T12:00:20;118349.16;;;-140.64;28.96
7930;BME280;4010;42.698;23.124;2022-07-23T12:02:49;118349.16;;;-140.64;30.18
7930;BME280;4010;42.698;23.124;2022-07-23T12:05:18;118349.16;;;-140.64;27.47
7930;BME280;4010;42.698;23.124;2022-07-23T12:07:46;118349.16;;;-140.64;28.96
7930;BME280;4010;42.698;23.124;2022-07-23T12:10:19;118349.16;;;-140.64;30.05
7930;BME280;4010;42.698;23.124;2022-07-23T12:12:48;118349.16;;;-140.64;31.00
7930;BME280;4010;42.698;23.124;2022-07-23T12:15:16;118349.16;;;-140.64;28.50
7930;BME280;4010;42.698;23.124;2022-07-23T12:17:45;118349.16;;;-140.64;30.04
7930;BME280;4010;42.698;23.124;2022-07-23T12:20:14;118349.16;;;-140.64;29.68
7930;BME280;4010;42.698;23.124;2022-07-23T12:22:43;118349.16;;;-140.64;28.65
7930;BME280;4010;42.698;23.124;2022-07-23T12:25:11;118349.16;;;-140.64;29.11
7930;BME280;4010;42.698;23.124;2022-07-23T12:27:41;118349.16;;;-140.64;27.86
7930;BME280;4010;42.698;23.124;2022-07-23T12:30:25;118349.16;;;-140.64;28.09
7930;BME280;4010;42.698;23.124;2022-07-23T12:32:53;118349.16;;;-140.64;27.18
7930;BME280;4010;42.698;23.124;2022-07-23T12:35:21;118349.16;;;-140.64;28.70
7930;BME280;4010;42.698;23.124;2022-07-23T12:37:50;118349.16;;;-140.64;27.73
7930;BME280;4010;42.698;23.124;2022-07-23T12:40:28;118349.16;;;-140.64;28.32
7930;BME280;4010;42.698;23.124;2022-07-23T12:42:58;118349.16;;;-140.64;27.66
7930;BME280;4010;42.698;23.124;2022-07-23T12:45:26;118349.16;;;-140.64;28.38
7930;BME280;4010;42.698;23.124;2022-07-23T12:48:00;118349.16;;;-140.64;28.63
7930;BME280;4010;42.698;23.124;2022-07-23T12:50:43;118349.16;;;-140.64;27.94